createdAt,value
2023-01-20T00:01:31.110Z,91.59
2023-01-20T00:03:58.268Z,91.33
2023-01-20T00:06:27.813Z,91.20
2023-01-20T00:08:56.651Z,90.96
2023-01-20T00:11:23.863Z,91.41
2023-01-20T00:13:55.003Z,91.39
2023-01-20T00:16:22.012Z,91.33
2023-01-20T00:18:50.083Z,91.41
2023-01-20T00:21:16.916Z,91.89
2023-01-20T00:23:45.084Z,91.14
2023-01-20T00:26:16.997Z,91.52
2023-01-20T00:28:46.081Z,91.61
2023-01-20T00:31:20.892Z,91.37
2023-01-20T00:33:49.271Z,91.30
2023-01-20T00:36:18.205Z,91.77
2023-01-20T00:38:44.924Z,92.21
2023-01-20T00:41:13.061Z,92.00
2023-01-20T00:43:39.698Z,92.13
2023-01-20T00:46:07.015Z,92.15
2023-01-20T00:48:35.163Z,92.12
2023-01-20T00:51:02.533Z,91.92
2023-01-20T00:53:29.325Z,92.04
2023-01-20T00:55:55.952Z,92.28
2023-01-20T00:58:22.678Z,92.26
2023-01-20T01:00:52.267Z,92.78
2023-01-20T01:03:19.355Z,92.42
2023-01-20T01:05:46.176Z,92.19
2023-01-20T01:08:13.666Z,92.32
2023-01-20T01:10:40.803Z,92.50
2023-01-20T01:13:08.642Z,92.01
2023-01-20T01:15:35.617Z,92.45
2023-01-20T01:18:02.214Z,92.51
2023-01-20T01:20:29.688Z,92.39
2023-01-20T01:22:56.928Z,92.29
2023-01-20T01:25:23.739Z,92.42
2023-01-20T01:27:50.224Z,92.60
2023-01-20T01:30:16.984Z,92.68
2023-01-20T01:32:44.772Z,92.96
2023-01-20T01:35:11.529Z,92.91
2023-01-20T01:37:39.311Z,92.70
2023-01-20T01:40:06.556Z,92.52
2023-01-20T01:42:33.123Z,92.95
2023-01-20T01:45:15.538Z,92.47
2023-01-20T01:47:43.104Z,92.90
2023-01-20T01:50:13.895Z,92.74
2023-01-20T01:52:43.858Z,93.01
2023-01-20T01:55:12.708Z,92.74
2023-01-20T01:57:40.340Z,93.02
2023-01-20T02:00:07.963Z,93.27
2023-01-20T02:02:36.015Z,93.09
2023-01-20T02:05:02.984Z,93.50
2023-01-20T02:07:32.517Z,93.39
2023-01-20T02:10:00.300Z,93.50
2023-01-20T02:12:27.288Z,93.76
2023-01-20T02:14:57.495Z,93.58
2023-01-20T02:17:27.305Z,93.75
2023-01-20T02:20:12.305Z,93.25
2023-01-20T02:22:50.115Z,93.72
2023-01-20T02:25:17.896Z,93.46
2023-01-20T02:27:57.471Z,93.69
2023-01-20T02:30:45.872Z,94.10
2023-01-20T02:33:21.847Z,93.74
2023-01-20T02:35:53.114Z,93.94
2023-01-20T02:38:36.062Z,93.74
2023-01-20T02:41:17.470Z,93.76
2023-01-20T02:43:50.998Z,93.58
2023-01-20T02:46:33.108Z,93.24
2023-01-20T02:49:15.819Z,93.77
2023-01-20T02:51:53.480Z,93.16
2023-01-20T02:54:21.956Z,93.26
2023-01-20T02:56:51.816Z,92.85
2023-01-20T02:59:24.612Z,93.18
2023-01-20T03:01:59.550Z,93.13
2023-01-20T03:04:33.443Z,92.67
2023-01-20T03:07:01.016Z,92.92
2023-01-20T03:09:33.313Z,92.60
2023-01-20T03:12:07.542Z,92.48
2023-01-20T03:14:34.120Z,92.55
2023-01-20T03:17:02.592Z,92.68
2023-01-20T03:19:29.546Z,92.65
2023-01-20T03:21:56.111Z,92.48
2023-01-20T03:24:24.133Z,92.55
2023-01-20T03:26:50.667Z,92.69
2023-01-20T03:29:18.371Z,92.65
2023-01-20T03:31:50.851Z,92.58
2023-01-20T03:34:22.029Z,92.18
2023-01-20T03:36:50.084Z,92.40
2023-01-20T03:39:17.774Z,92.50
2023-01-20T03:41:53.176Z,92.16
2023-01-20T03:44:36.950Z,92.09
2023-01-20T03:47:27.261Z,92.54
2023-01-20T03:50:05.901Z,92.42
2023-01-20T03:52:47.870Z,92.22
2023-01-20T03:55:29.059Z,91.80
2023-01-20T03:58:03.471Z,91.69
2023-01-20T04:00:33.634Z,92.02
2023-01-20T04:03:05.226Z,92.09
2023-01-20T04:05:33.046Z,92.20
2023-01-20T04:08:04.524Z,92.29
2023-01-20T04:10:33.321Z,92.06
2023-01-20T04:12:59.959Z,92.10
2023-01-20T04:15:30.438Z,92.11
2023-01-20T04:17:57.097Z,91.70
2023-01-20T04:20:25.795Z,91.85
2023-01-20T04:22:58.229Z,91.32
2023-01-20T04:25:29.191Z,91.59
2023-01-20T04:27:55.640Z,91.66
2023-01-20T04:30:22.663Z,91.75
2023-01-20T04:32:49.233Z,91.99
2023-01-20T04:35:18.914Z,91.54
2023-01-20T04:37:45.783Z,91.78
2023-01-20T04:40:12.732Z,91.55
2023-01-20T04:42:39.289Z,91.89
2023-01-20T04:45:06.177Z,91.83
2023-01-20T04:47:34.010Z,91.40
2023-01-20T04:50:01.608Z,91.79
2023-01-20T04:52:28.124Z,91.79
2023-01-20T04:54:54.804Z,91.52
2023-01-20T04:57:21.298Z,91.40
2023-01-20T04:59:47.800Z,91.25
2023-01-20T05:02:14.326Z,91.38
2023-01-20T05:04:41.030Z,91.06
2023-01-20T05:07:08.486Z,91.41
2023-01-20T05:09:34.964Z,91.22
2023-01-20T05:12:01.446Z,91.27
2023-01-20T05:14:27.922Z,91.16
2023-01-20T05:16:54.421Z,91.06
2023-01-20T05:19:20.970Z,91.11
2023-01-20T05:21:47.489Z,91.37
2023-01-20T05:24:14.162Z,91.37
2023-01-20T05:26:41.606Z,91.16
2023-01-20T05:29:09.211Z,91.11
2023-01-20T05:31:38.864Z,91.26
2023-01-20T05:34:05.366Z,91.09
2023-01-20T05:36:32.953Z,91.41
2023-01-20T05:39:00.403Z,91.27
2023-01-20T05:41:26.934Z,91.16
2023-01-20T05:43:54.173Z,91.36
2023-01-20T05:46:21.566Z,91.29
2023-01-20T05:48:48.064Z,91.46
2023-01-20T05:51:14.669Z,91.17
2023-01-20T05:53:41.208Z,90.81
2023-01-20T05:56:07.984Z,91.06
2023-01-20T05:58:34.665Z,91.31
2023-01-20T06:01:07.324Z,91.32
2023-01-20T06:03:34.158Z,90.64
2023-01-20T06:06:02.254Z,91.18
2023-01-20T06:08:28.975Z,91.35
2023-01-20T06:10:55.565Z,91.10
2023-01-20T06:13:22.246Z,91.05
2023-01-20T06:15:54.368Z,91.22
2023-01-20T06:18:22.264Z,91.05
2023-01-20T06:20:48.946Z,91.07
2023-01-20T06:23:15.839Z,90.63
2023-01-20T06:25:43.756Z,90.51
2023-01-20T06:28:10.233Z,91.33
2023-01-20T06:30:36.944Z,91.38
2023-01-20T06:33:04.252Z,91.18
2023-01-20T06:35:30.721Z,91.53
2023-01-20T06:38:00.019Z,91.52
2023-01-20T06:40:26.549Z,91.14
2023-01-20T06:42:53.235Z,91.25
2023-01-20T06:45:19.898Z,91.39
2023-01-20T06:47:50.568Z,91.48
2023-01-20T06:50:17.306Z,91.29
2023-01-20T06:52:44.797Z,91.24
2023-01-20T06:55:11.393Z,90.97
2023-01-20T06:57:38.048Z,91.12
2023-01-20T07:00:04.978Z,91.30
2023-01-20T07:02:31.496Z,91.05
2023-01-20T07:04:58.223Z,91.36
2023-01-20T07:07:24.761Z,91.48
2023-01-20T07:09:54.758Z,91.24
2023-01-20T07:12:21.404Z,91.49
2023-01-20T07:14:47.866Z,91.74
2023-01-20T07:17:14.351Z,91.44
2023-01-20T07:19:40.877Z,91.74
2023-01-20T07:22:07.401Z,91.94
2023-01-20T07:24:34.050Z,91.53
2023-01-20T07:27:00.533Z,91.92
2023-01-20T07:29:27.705Z,91.58
2023-01-20T07:31:54.240Z,91.77
2023-01-20T07:34:21.715Z,91.63
2023-01-20T07:36:48.159Z,91.72
2023-01-20T07:39:15.444Z,92.13
2023-01-20T07:41:44.692Z,91.88
2023-01-20T07:44:11.226Z,91.55
2023-01-20T07:46:38.688Z,91.87
2023-01-20T07:49:05.188Z,91.78
2023-01-20T07:51:31.725Z,91.66
2023-01-20T07:53:58.252Z,91.61
2023-01-20T07:56:27.580Z,91.36
2023-01-20T07:58:55.715Z,91.55
2023-01-20T08:01:24.792Z,91.58
2023-01-20T08:03:51.847Z,91.92
2023-01-20T08:06:21.152Z,92.00
2023-01-20T08:08:48.494Z,91.61
2023-01-20T08:11:16.093Z,91.61
2023-01-20T08:13:43.490Z,91.44
2023-01-20T08:16:13.283Z,91.35
2023-01-20T08:18:40.589Z,91.79
2023-01-20T08:21:08.660Z,91.73
2023-01-20T08:23:36.073Z,91.56
2023-01-20T08:26:05.975Z,91.64
2023-01-20T08:28:35.398Z,91.81
2023-01-20T08:31:09.047Z,92.03
2023-01-20T08:33:36.072Z,91.88
2023-01-20T08:36:05.184Z,91.71
2023-01-20T08:38:32.689Z,91.53
2023-01-20T08:40:59.191Z,91.35
2023-01-20T08:43:25.650Z,91.57
2023-01-20T08:46:03.875Z,91.18
2023-01-20T08:48:30.377Z,91.37
2023-01-20T08:50:57.094Z,91.80
2023-01-20T08:53:23.681Z,91.84
2023-01-20T08:55:56.155Z,91.52
2023-01-20T08:58:25.363Z,91.92
2023-01-20T09:00:52.924Z,92.14
2023-01-20T09:03:20.724Z,91.97
2023-01-20T09:05:47.436Z,91.64
2023-01-20T09:08:15.190Z,92.17
2023-01-20T09:10:41.689Z,91.52
2023-01-20T09:13:08.376Z,91.55
2023-01-20T09:15:34.960Z,91.77
2023-01-20T09:18:01.476Z,91.81
2023-01-20T09:20:29.864Z,91.75
2023-01-20T09:23:00.590Z,91.68
2023-01-20T09:25:27.243Z,91.75
2023-01-20T09:27:54.834Z,91.60
2023-01-20T09:30:21.582Z,91.85
2023-01-20T09:32:50.919Z,91.79
2023-01-20T09:35:17.930Z,91.95
2023-01-20T09:38:03.175Z,91.87
2023-01-20T09:40:58.397Z,91.90
2023-01-20T09:43:53.696Z,91.67
2023-01-20T09:46:28.234Z,91.85
2023-01-20T09:49:34.365Z,91.79
2023-01-20T09:52:42.804Z,91.68
2023-01-20T09:55:20.053Z,92.38
2023-01-20T09:58:00.043Z,91.93
2023-01-20T10:00:31.575Z,91.74
2023-01-20T10:03:12.808Z,91.60
2023-01-20T10:05:40.341Z,91.69
2023-01-20T10:08:15.920Z,91.88
2023-01-20T10:10:50.688Z,91.73
2023-01-20T10:13:23.608Z,92.35
2023-01-20T10:15:55.122Z,91.91
2023-01-20T10:18:37.221Z,91.66
2023-01-20T10:21:12.563Z,91.88
2023-01-20T10:23:43.794Z,91.53
2023-01-20T10:26:27.579Z,92.06
2023-01-20T10:28:59.748Z,92.01
2023-01-20T10:31:31.865Z,92.18
2023-01-20T10:34:06.025Z,91.80
2023-01-20T10:36:34.949Z,91.88
2023-01-20T10:39:10.858Z,91.83
2023-01-20T10:41:44.882Z,91.45
2023-01-20T10:44:13.872Z,92.05
2023-01-20T10:47:03.243Z,91.37
2023-01-20T10:49:36.887Z,91.50
2023-01-20T10:52:21.415Z,91.51
2023-01-20T10:55:01.107Z,91.75
2023-01-20T10:57:29.045Z,91.35
2023-01-20T11:00:01.734Z,91.89
2023-01-20T11:02:35.009Z,91.57
2023-01-20T11:05:14.414Z,91.77
2023-01-20T11:07:41.711Z,91.39
2023-01-20T11:10:19.783Z,91.40
2023-01-20T11:12:50.704Z,91.48
2023-01-20T11:15:22.964Z,91.34
2023-01-20T11:18:19.512Z,91.66
2023-01-20T11:20:53.169Z,91.44
2023-01-20T11:23:19.616Z,91.76
2023-01-20T11:25:58.981Z,91.88
2023-01-20T11:28:26.972Z,91.62
2023-01-20T11:30:57.203Z,91.73
2023-01-20T11:33:26.663Z,91.66
2023-01-20T11:35:59.773Z,90.96
2023-01-20T11:38:30.568Z,91.13
2023-01-20T11:40:57.808Z,91.15
2023-01-20T11:43:36.340Z,90.64
2023-01-20T11:46:26.533Z,91.04
2023-01-20T11:49:20.846Z,90.52
2023-01-20T11:51:50.418Z,90.20
2023-01-20T11:54:25.534Z,90.58
2023-01-20T11:56:56.532Z,90.33
2023-01-20T11:59:49.627Z,90.07
2023-01-20T12:02:24.174Z,90.44
2023-01-20T12:05:15.496Z,90.35
2023-01-20T12:07:45.676Z,90.15
2023-01-20T12:10:18.218Z,90.40
2023-01-20T12:12:53.537Z,90.36
2023-01-20T12:15:24.271Z,90.33
2023-01-20T12:17:58.630Z,90.26
2023-01-20T12:20:42.375Z,90.78
2023-01-20T12:23:40.154Z,90.79
2023-01-20T12:26:09.157Z,91.04
2023-01-20T12:29:03.675Z,91.05
2023-01-20T12:31:32.029Z,91.13
2023-01-20T12:34:03.798Z,90.85
2023-01-20T12:36:35.381Z,91.10
2023-01-20T12:39:01.844Z,91.35
2023-01-20T12:41:33.526Z,91.20
2023-01-20T12:44:12.226Z,91.66
2023-01-20T12:46:53.440Z,91.61
2023-01-20T12:49:41.911Z,91.69
2023-01-20T12:52:17.979Z,91.48
2023-01-20T12:54:56.691Z,91.86
2023-01-20T12:57:41.123Z,91.69
2023-01-20T13:00:30.449Z,91.45
2023-01-20T13:03:25.494Z,91.68
2023-01-20T13:06:20.520Z,91.40
2023-01-20T13:09:14.589Z,91.64
2023-01-20T13:12:06.388Z,91.17
2023-01-20T13:14:44.091Z,91.41
2023-01-20T13:17:22.220Z,91.63
2023-01-20T13:19:49.924Z,91.84
2023-01-20T13:22:20.488Z,91.55
2023-01-20T13:24:50.199Z,91.79
2023-01-20T13:27:24.943Z,91.71
2023-01-20T13:29:51.376Z,92.22
2023-01-20T13:32:41.889Z,91.84
2023-01-20T13:35:17.008Z,91.98
2023-01-20T13:37:50.927Z,91.71
2023-01-20T13:40:38.437Z,91.82
2023-01-20T13:43:26.231Z,92.27
2023-01-20T13:46:02.781Z,92.07
2023-01-20T13:48:32.108Z,91.63
2023-01-20T13:51:21.562Z,92.32
2023-01-20T13:53:49.128Z,92.31
2023-01-20T13:56:30.009Z,91.70
2023-01-20T13:58:58.421Z,92.03
2023-01-20T14:01:26.739Z,91.80
2023-01-20T14:04:07.819Z,91.31
2023-01-20T14:06:36.264Z,91.58
2023-01-20T14:09:04.257Z,90.97
2023-01-20T14:11:32.337Z,91.21
2023-01-20T14:14:02.435Z,91.21
2023-01-20T14:16:36.799Z,91.46
2023-01-20T14:19:23.068Z,91.23
2023-01-20T14:21:54.954Z,91.25
2023-01-20T14:24:32.545Z,91.74
2023-01-20T14:27:07.738Z,91.52
2023-01-20T14:29:34.259Z,91.16
2023-01-20T14:32:00.862Z,91.54
2023-01-20T14:34:30.590Z,91.08
2023-01-20T14:36:59.449Z,91.30
2023-01-20T14:39:28.512Z,91.68
2023-01-20T14:41:58.217Z,91.45
2023-01-20T14:44:27.846Z,91.31
2023-01-20T14:46:57.784Z,91.69
2023-01-20T14:49:31.921Z,91.09
2023-01-20T14:51:58.783Z,91.14
2023-01-20T14:54:45.234Z,91.43
2023-01-20T14:57:33.083Z,91.00
2023-01-20T15:00:20.882Z,91.66
2023-01-20T15:03:05.361Z,91.59
2023-01-20T15:05:40.347Z,91.68
2023-01-20T15:08:26.740Z,91.82
2023-01-20T15:11:17.330Z,91.76
2023-01-20T15:13:53.167Z,92.08
2023-01-20T15:16:25.903Z,91.48
2023-01-20T15:19:17.562Z,91.64
2023-01-20T15:21:47.213Z,91.97
2023-01-20T15:24:19.426Z,91.44
2023-01-20T15:26:48.083Z,91.53
2023-01-20T15:29:26.562Z,91.81
2023-01-20T15:31:55.744Z,91.73
2023-01-20T15:34:23.289Z,91.38
2023-01-20T15:36:51.408Z,91.28
2023-01-20T15:39:24.571Z,91.40
2023-01-20T15:41:59.010Z,91.36
2023-01-20T15:44:27.369Z,91.19
2023-01-20T15:46:57.093Z,90.90
2023-01-20T15:49:25.120Z,91.48
2023-01-20T15:51:51.764Z,91.27
2023-01-20T15:54:18.698Z,91.48
2023-01-20T15:56:45.392Z,91.19
2023-01-20T15:59:14.777Z,91.28
2023-01-20T16:01:43.100Z,90.75
2023-01-20T16:04:10.226Z,91.23
2023-01-20T16:06:37.562Z,90.72
2023-01-20T16:09:20.414Z,90.67
2023-01-20T16:11:47.586Z,90.47
2023-01-20T16:14:14.263Z,90.37
2023-01-20T16:16:41.271Z,90.66
2023-01-20T16:19:13.141Z,90.34
2023-01-20T16:21:39.770Z,90.12
2023-01-20T16:24:06.964Z,90.16
2023-01-20T16:26:36.148Z,90.67
2023-01-20T16:29:04.679Z,90.43
2023-01-20T16:31:32.452Z,90.05
2023-01-20T16:33:59.203Z,90.31
2023-01-20T16:36:25.748Z,90.33
2023-01-20T16:38:52.281Z,90.44
2023-01-20T16:41:21.248Z,89.80
2023-01-20T16:43:48.820Z,90.19
2023-01-20T16:46:18.025Z,89.96
2023-01-20T16:48:45.012Z,89.99
2023-01-20T16:51:14.185Z,90.16
2023-01-20T16:53:40.774Z,90.02
2023-01-20T16:56:13.175Z,89.54
2023-01-20T16:58:39.679Z,89.34
2023-01-20T17:01:12.023Z,89.37
2023-01-20T17:03:39.773Z,89.14
2023-01-20T17:06:11.760Z,89.66
2023-01-20T17:08:38.536Z,89.68
2023-01-20T17:11:07.620Z,89.27
2023-01-20T17:13:34.136Z,89.42
2023-01-20T17:16:00.795Z,89.43
2023-01-20T17:18:27.339Z,89.28
2023-01-20T17:20:53.969Z,89.38
2023-01-20T17:23:21.475Z,89.53
2023-01-20T17:25:49.430Z,89.68
2023-01-20T17:28:15.977Z,89.75
2023-01-20T17:30:43.417Z,89.40
2023-01-20T17:33:09.878Z,89.28
2023-01-20T17:35:36.334Z,89.66
2023-01-20T17:38:04.103Z,89.52
2023-01-20T17:40:30.615Z,89.46
2023-01-20T17:42:57.097Z,89.42
2023-01-20T17:45:23.727Z,89.38
2023-01-20T17:47:53.304Z,89.33
2023-01-20T17:50:19.787Z,89.77
2023-01-20T17:52:46.351Z,89.64
2023-01-20T17:55:12.886Z,89.74
2023-01-20T17:57:39.375Z,89.84
2023-01-20T18:00:07.557Z,89.95
2023-01-20T18:02:34.141Z,90.04
2023-01-20T18:05:00.713Z,89.96
2023-01-20T18:07:27.273Z,89.78
2023-01-20T18:09:53.871Z,89.89
2023-01-20T18:12:21.515Z,89.92
2023-01-20T18:14:48.090Z,89.57
2023-01-20T18:17:15.646Z,90.39
2023-01-20T18:19:42.155Z,90.07
2023-01-20T18:22:10.269Z,89.79
2023-01-20T18:24:37.030Z,90.05
2023-01-20T18:27:03.685Z,90.01
2023-01-20T18:29:30.249Z,89.90
2023-01-20T18:31:58.254Z,89.69
2023-01-20T18:34:24.980Z,89.79
2023-01-20T18:36:51.960Z,89.88
2023-01-20T18:39:21.437Z,89.93
2023-01-20T18:41:48.895Z,90.26
2023-01-20T18:44:16.460Z,89.89
2023-01-20T18:46:44.413Z,89.96
2023-01-20T18:49:14.064Z,89.66
2023-01-20T18:51:42.303Z,89.45
2023-01-20T18:54:17.357Z,89.73
2023-01-20T18:56:45.435Z,90.27
2023-01-20T18:59:12.836Z,90.05
2023-01-20T19:01:41.717Z,89.99
2023-01-20T19:04:10.190Z,89.95
2023-01-20T19:06:39.438Z,89.52
2023-01-20T19:09:07.694Z,89.82
2023-01-20T19:11:40.506Z,89.50
2023-01-20T19:14:11.072Z,89.16
2023-01-20T19:16:40.237Z,89.18
2023-01-20T19:19:07.823Z,89.39
2023-01-20T19:21:36.309Z,89.39
2023-01-20T19:24:06.221Z,89.60
2023-01-20T19:26:35.486Z,89.33
2023-01-20T19:29:06.769Z,89.36
2023-01-20T19:31:37.715Z,89.31
2023-01-20T19:34:05.437Z,89.28
2023-01-20T19:36:32.831Z,89.29
2023-01-20T19:39:01.016Z,89.31
2023-01-20T19:41:33.143Z,88.87
2023-01-20T19:44:00.995Z,89.09
2023-01-20T19:46:30.353Z,89.12
2023-01-20T19:48:58.678Z,88.98
2023-01-20T19:51:26.144Z,88.92
2023-01-20T19:53:56.629Z,88.75
2023-01-20T19:56:24.364Z,88.82
2023-01-20T19:58:53.193Z,89.19
2023-01-20T20:01:22.527Z,88.97
2023-01-20T20:03:51.632Z,89.00
2023-01-20T20:06:28.294Z,88.84
2023-01-20T20:08:59.198Z,88.95
2023-01-20T20:11:28.595Z,88.69
2023-01-20T20:13:58.208Z,88.53
2023-01-20T20:16:27.563Z,88.66
2023-01-20T20:18:55.320Z,88.73
2023-01-20T20:21:23.018Z,88.87
2023-01-20T20:23:52.584Z,88.54
2023-01-20T20:26:20.521Z,88.76
2023-01-20T20:28:47.433Z,88.70
2023-01-20T20:31:14.561Z,88.62
2023-01-20T20:33:41.195Z,88.50
2023-01-20T20:36:09.664Z,88.61
2023-01-20T20:38:36.738Z,88.94
2023-01-20T20:41:07.873Z,88.72
2023-01-20T20:43:35.992Z,88.88
2023-01-20T20:46:06.447Z,88.46
2023-01-20T20:48:33.666Z,88.55
2023-01-20T20:51:07.978Z,88.67
2023-01-20T20:53:34.618Z,88.40
2023-01-20T20:56:04.290Z,88.87
2023-01-20T20:58:32.783Z,88.84
2023-01-20T21:01:04.014Z,88.64
2023-01-20T21:03:32.212Z,88.63
2023-01-20T21:05:58.756Z,88.64
2023-01-20T21:08:26.411Z,88.68
2023-01-20T21:10:53.182Z,88.97
2023-01-20T21:13:20.406Z,89.11
2023-01-20T21:16:03.534Z,88.83
2023-01-20T21:18:32.107Z,88.36
2023-01-20T21:21:01.432Z,88.90
2023-01-20T21:23:29.125Z,88.67
2023-01-20T21:26:01.865Z,88.61
2023-01-20T21:28:30.353Z,88.40
2023-01-20T21:30:56.940Z,88.13
2023-01-20T21:33:23.933Z,87.99
2023-01-20T21:35:50.562Z,88.34
2023-01-20T21:38:17.144Z,87.83
2023-01-20T21:40:59.719Z,87.89
2023-01-20T21:43:49.789Z,87.49
2023-01-20T21:46:16.853Z,87.77
2023-01-20T21:49:02.927Z,87.81
2023-01-20T21:51:48.237Z,87.88
2023-01-20T21:54:15.235Z,87.88
2023-01-20T21:56:42.912Z,87.72
2023-01-20T21:59:11.460Z,87.61
2023-01-20T22:01:38.793Z,87.80
2023-01-20T22:04:05.631Z,87.32
2023-01-20T22:06:32.301Z,87.32
2023-01-20T22:09:00.610Z,87.25
2023-01-20T22:11:28.573Z,87.43
2023-01-20T22:13:57.138Z,87.27
2023-01-20T22:16:24.867Z,87.54
2023-01-20T22:18:52.393Z,87.40
2023-01-20T22:21:21.311Z,87.07
2023-01-20T22:23:48.405Z,87.37
2023-01-20T22:26:14.899Z,87.43
2023-01-20T22:28:41.521Z,87.15
2023-01-20T22:31:12.119Z,87.52
2023-01-20T22:33:39.031Z,86.92
2023-01-20T22:36:06.474Z,87.02
2023-01-20T22:38:34.009Z,86.91
2023-01-20T22:41:08.548Z,87.12
2023-01-20T22:43:37.693Z,87.01
2023-01-20T22:46:05.090Z,86.63
2023-01-20T22:48:33.990Z,87.04
2023-01-20T22:51:06.066Z,87.65
2023-01-20T22:53:33.326Z,87.75
2023-01-20T22:56:04.482Z,87.49
2023-01-20T22:58:31.459Z,87.39
2023-01-20T23:00:59.065Z,87.57
2023-01-20T23:03:26.303Z,87.64
2023-01-20T23:05:58.595Z,87.79
2023-01-20T23:08:27.849Z,88.07
2023-01-20T23:10:56.508Z,87.94
2023-01-20T23:13:24.509Z,87.85
2023-01-20T23:15:51.492Z,88.28
2023-01-20T23:18:19.275Z,88.13
2023-01-20T23:20:56.765Z,88.23
2023-01-20T23:23:27.034Z,87.56
2023-01-20T23:26:05.540Z,87.49
2023-01-20T23:28:32.592Z,87.71
2023-01-20T23:31:01.406Z,87.35
2023-01-20T23:33:27.939Z,87.82
2023-01-20T23:35:54.627Z,87.62
2023-01-20T23:38:21.128Z,87.94
2023-01-20T23:40:49.192Z,88.38
2023-01-20T23:43:15.773Z,87.97
2023-01-20T23:45:42.597Z,87.93
2023-01-20T23:48:09.132Z,87.58
2023-01-20T23:50:35.582Z,87.88
2023-01-20T23:53:02.049Z,88.06
2023-01-20T23:55:28.575Z,88.08
2023-01-20T23:57:55.930Z,87.94
